Terminal Aerodrome Forecast
Issued by NWS Sterling, VA

Current Version | Previous Version | Text Only | Print | Product List | Glossary Off
Versions: 1 2 3 4 5 6 7 8 9 10 11 12 13 14 15 16 17 18 19 20 21 22

000
FTUS41 KLWX 241739
TAFIAD
TAF
KIAD 241739Z 2418/2524 20005KT P6SM SCT050
     FM250200 14004KT P6SM BKN080
     FM251400 26004KT P6SM SCT090
     FM251700 25006KT P6SM BKN060=

USA.gov is the U.S. government's official web portal to all federal, state and local government web resources and services.